PWSweather.com
Personal Weather Stations
Station Observations
AF1HS
North Haven, CT 06473

North Haven, CT 06473

Lat: 41.3733, Lon: -72.8413

Elevation: 85.3

Station Type: Oregon Scientific WMR968

http://www.af1hs.com/wx/index.php

High Low Average
Temperature 85.4°F29.7°C 58.1°F14.5°C 72.0°F22.2°C
Dew Point 54.9°F12.7°C 43.5°F6.4°C 49.1°F9.5°C
Winds 6.9 mph 11.1 kmh Calm Calm 2.0 mph WNW3.2 kmh WNW
Wind Gusts 11.5 mph18.5 kmh -- 3.0 mph4.8 kmh
Humidity 61% 33% 46%
Pressure 29.84 in1010.5 mb 29.78 in1008.5 mb -
Precipitation 0.00 in0.0 mm - -
Hour Temp Dew Point Humidity Winds Wind Gusts Pressure Precip Precip Rate Daily Precip Total
12:00 AM 61.2°F16.2°C 44.4°F6.9°C 54% Calm Calm 2.3 mph3.7 kmh 29.78 in1008.5 mb - 0.00 in0.0 mm 0.00 in0.0 mm
12:10 AM 61.5°F16.4°C 44.7°F7.1°C 54% Calm Calm -- 29.78 in1008.5 mb - 0.00 in0.0 mm 0.00 in0.0 mm
12:20 AM 61.5°F16.4°C 44.7°F7.1°C 54% Calm Calm -- 29.78 in1008.5 mb - 0.00 in0.0 mm 0.00 in0.0 mm
12:30 AM 61.2°F16.2°C 44.4°F6.9°C 54% Calm Calm -- 29.78 in1008.5 mb - 0.00 in0.0 mm 0.00 in0.0 mm
12:40 AM 60.8°F16.0°C 44.5°F6.9°C 55% Calm Calm -- 29.78 in1008.5 mb - 0.00 in0.0 mm 0.00 in0.0 mm
12:50 AM 60.6°F15.9°C 44.4°F6.9°C 55% Calm Calm -- 29.78 in1008.5 mb - 0.00 in0.0 mm 0.00 in0.0 mm
01:00 AM 60.4°F15.8°C 44.1°F6.7°C 55% Calm Calm 2.3 mph3.7 kmh 29.78 in1008.5 mb - 0.00 in0.0 mm 0.00 in0.0 mm
01:10 AM 60.3°F15.7°C 44.0°F6.7°C 55% Calm Calm -- 29.81 in1009.5 mb - 0.00 in0.0 mm 0.00 in0.0 mm
01:20 AM 59.9°F15.5°C 43.7°F6.5°C 55% Calm Calm 2.3 mph3.7 kmh 29.81 in1009.5 mb - 0.00 in0.0 mm 0.00 in0.0 mm
01:30 AM 59.7°F15.4°C 43.5°F6.4°C 55% Calm Calm -- 29.81 in1009.5 mb - 0.00 in0.0 mm 0.00 in0.0 mm
01:40 AM 59.4°F15.2°C 43.7°F6.5°C 56% 1.2 mph NW1.9 kmh NW -- 29.81 in1009.5 mb - 0.00 in0.0 mm 0.00 in0.0 mm
01:50 AM 59.2°F15.1°C 43.9°F6.6°C 57% Calm Calm -- 29.81 in1009.5 mb - 0.00 in0.0 mm 0.00 in0.0 mm
02:00 AM 59.0°F15.0°C 44.2°F6.8°C 58% Calm Calm 3.5 mph5.6 kmh 29.81 in1009.5 mb - 0.00 in0.0 mm 0.00 in0.0 mm
02:10 AM 59.2°F15.1°C 44.9°F7.2°C 59% Calm Calm -- 29.78 in1008.5 mb - 0.00 in0.0 mm 0.00 in0.0 mm
02:20 AM 59.2°F15.1°C 44.9°F7.2°C 59% Calm Calm 3.5 mph5.6 kmh 29.80 in1009.1 mb - 0.00 in0.0 mm 0.00 in0.0 mm
02:30 AM 59.0°F15.0°C 44.7°F7.1°C 59% Calm Calm -- 29.81 in1009.5 mb - 0.00 in0.0 mm 0.00 in0.0 mm
02:40 AM 58.8°F14.9°C 45.0°F7.2°C 60% Calm Calm -- 29.81 in1009.5 mb - 0.00 in0.0 mm 0.00 in0.0 mm
02:50 AM 59.2°F15.1°C 45.3°F7.4°C 60% 1.2 mph NNW1.9 kmh NNW 4.6 mph7.4 kmh 29.81 in1009.5 mb - 0.00 in0.0 mm 0.00 in0.0 mm
03:00 AM 59.4°F15.2°C 45.0°F7.2°C 59% Calm Calm -- 29.81 in1009.5 mb - 0.00 in0.0 mm 0.00 in0.0 mm
03:10 AM 59.0°F15.0°C 45.1°F7.3°C 60% Calm Calm -- 29.81 in1009.5 mb - 0.00 in0.0 mm 0.00 in0.0 mm
03:20 AM 59.0°F15.0°C 45.1°F7.3°C 60% Calm Calm 2.3 mph3.7 kmh 29.81 in1009.5 mb - 0.00 in0.0 mm 0.00 in0.0 mm
03:30 AM 59.0°F15.0°C 45.1°F7.3°C 60% 1.2 mph N1.9 kmh N 3.5 mph5.6 kmh 29.81 in1009.5 mb - 0.00 in0.0 mm 0.00 in0.0 mm
03:40 AM 58.8°F14.9°C 44.9°F7.2°C 60% Calm Calm -- 29.81 in1009.5 mb - 0.00 in0.0 mm 0.00 in0.0 mm
03:50 AM 58.5°F14.7°C 44.6°F7.0°C 60% Calm Calm 2.3 mph3.7 kmh 29.81 in1009.5 mb - 0.00 in0.0 mm 0.00 in0.0 mm
04:00 AM 58.3°F14.6°C 44.4°F6.9°C 60% Calm Calm -- 29.81 in1009.5 mb - 0.00 in0.0 mm 0.00 in0.0 mm
04:10 AM 58.1°F14.5°C 44.3°F6.8°C 60% Calm Calm -- 29.81 in1009.5 mb - 0.00 in0.0 mm 0.00 in0.0 mm
04:20 AM 58.1°F14.5°C 44.7°F7.1°C 61% 2.3 mph NNW3.7 kmh NNW 3.5 mph5.6 kmh 29.81 in1009.5 mb - 0.00 in0.0 mm 0.00 in0.0 mm
04:30 AM 58.4°F14.7°C 45.0°F7.2°C 61% 3.5 mph NNW5.6 kmh NNW 5.8 mph9.3 kmh 29.81 in1009.5 mb - 0.00 in0.0 mm 0.00 in0.0 mm
04:40 AM 58.6°F14.8°C 45.1°F7.3°C 61% 3.5 mph NNW5.6 kmh NNW 5.8 mph9.3 kmh 29.81 in1009.5 mb - 0.00 in0.0 mm 0.00 in0.0 mm
04:50 AM 58.8°F14.9°C 45.4°F7.4°C 61% 2.3 mph NW3.7 kmh NW 4.6 mph7.4 kmh 29.81 in1009.5 mb - 0.00 in0.0 mm 0.00 in0.0 mm
05:00 AM 59.1°F15.1°C 45.2°F7.3°C 60% 2.3 mph NNW3.7 kmh NNW 3.5 mph5.6 kmh 29.81 in1009.5 mb - 0.00 in0.0 mm 0.00 in0.0 mm
05:10 AM 59.5°F15.3°C 45.1°F7.3°C 59% 3.5 mph NNW5.6 kmh NNW 3.5 mph5.6 kmh 29.81 in1009.5 mb - 0.00 in0.0 mm 0.00 in0.0 mm
05:20 AM 60.4°F15.8°C 46.0°F7.8°C 59% 3.5 mph NNW5.6 kmh NNW 4.6 mph7.4 kmh 29.81 in1009.5 mb - 0.00 in0.0 mm 0.00 in0.0 mm
05:30 AM 65.2°F18.4°C 47.6°F8.7°C 53% 4.6 mph NNW7.4 kmh NNW 5.8 mph9.3 kmh 29.81 in1009.5 mb - 0.00 in0.0 mm 0.00 in0.0 mm
05:40 AM 65.1°F18.4°C 47.1°F8.4°C 52% 3.5 mph NNW5.6 kmh NNW 3.5 mph5.6 kmh 29.81 in1009.5 mb - 0.00 in0.0 mm 0.00 in0.0 mm
05:50 AM 68.5°F20.3°C 49.7°F9.8°C 51% 5.8 mph NNW9.3 kmh NNW 8.1 mph13.0 kmh 29.81 in1009.5 mb - 0.00 in0.0 mm 0.00 in0.0 mm
06:00 AM 68.6°F20.3°C 48.7°F9.3°C 49% 3.5 mph NNW5.6 kmh NNW 3.5 mph5.6 kmh 29.81 in1009.5 mb - 0.00 in0.0 mm 0.00 in0.0 mm
06:10 AM 68.7°F20.4°C 48.8°F9.3°C 49% 1.2 mph WNW1.9 kmh WNW 4.6 mph7.4 kmh 29.81 in1009.5 mb - 0.00 in0.0 mm 0.00 in0.0 mm
06:20 AM 68.7°F20.4°C 47.1°F8.4°C 46% 5.8 mph NW9.3 kmh NW 8.1 mph13.0 kmh 29.81 in1009.5 mb - 0.00 in0.0 mm 0.00 in0.0 mm
06:30 AM 68.7°F20.4°C 48.8°F9.3°C 49% 3.5 mph NW5.6 kmh NW 5.8 mph9.3 kmh 29.81 in1009.5 mb - 0.00 in0.0 mm 0.00 in0.0 mm
06:40 AM 69.6°F20.9°C 47.9°F8.8°C 46% 4.6 mph WNW7.4 kmh WNW 8.1 mph13.0 kmh 29.84 in1010.5 mb - 0.00 in0.0 mm 0.00 in0.0 mm
06:50 AM 70.2°F21.2°C 49.0°F9.4°C 47% 3.5 mph NW5.6 kmh NW 5.8 mph9.3 kmh 29.84 in1010.5 mb - 0.00 in0.0 mm 0.00 in0.0 mm
07:00 AM 70.6°F21.4°C 48.2°F9.0°C 45% 6.9 mph NNW11.1 kmh NNW 8.1 mph13.0 kmh 29.84 in1010.5 mb - 0.00 in0.0 mm 0.00 in0.0 mm
07:10 AM 71.1°F21.7°C 48.6°F9.2°C 45% 4.6 mph NW7.4 kmh NW 5.8 mph9.3 kmh 29.84 in1010.5 mb - 0.00 in0.0 mm 0.00 in0.0 mm
07:20 AM 72.4°F22.4°C 49.3°F9.6°C 44% 2.3 mph NW3.7 kmh NW 5.8 mph9.3 kmh 29.84 in1010.5 mb - 0.00 in0.0 mm 0.00 in0.0 mm
07:30 AM 73.4°F23.0°C 49.5°F9.7°C 43% 3.5 mph N5.6 kmh N 8.1 mph13.0 kmh 29.84 in1010.5 mb - 0.00 in0.0 mm 0.00 in0.0 mm
07:40 AM 73.1°F22.8°C 48.0°F8.9°C 41% 5.8 mph N9.3 kmh N 10.4 mph16.7 kmh 29.84 in1010.5 mb - 0.00 in0.0 mm 0.00 in0.0 mm
07:50 AM 73.9°F23.3°C 48.7°F9.3°C 41% 4.6 mph NW7.4 kmh NW 5.8 mph9.3 kmh 29.84 in1010.5 mb - 0.00 in0.0 mm 0.00 in0.0 mm
08:00 AM 75.9°F24.4°C 49.9°F9.9°C 40% 5.8 mph WNW9.3 kmh WNW 8.1 mph13.0 kmh 29.84 in1010.5 mb - 0.00 in0.0 mm 0.00 in0.0 mm
08:10 AM 75.9°F24.4°C 49.2°F9.6°C 39% 4.6 mph NW7.4 kmh NW 6.9 mph11.1 kmh 29.84 in1010.5 mb - 0.00 in0.0 mm 0.00 in0.0 mm
08:20 AM 75.6°F24.2°C 48.9°F9.4°C 39% 3.5 mph N5.6 kmh N 5.8 mph9.3 kmh 29.84 in1010.5 mb - 0.00 in0.0 mm 0.00 in0.0 mm
08:30 AM 76.8°F24.9°C 50.0°F10.0°C 39% 4.6 mph NW7.4 kmh NW 8.1 mph13.0 kmh 29.84 in1010.5 mb - 0.00 in0.0 mm 0.00 in0.0 mm
08:40 AM 76.2°F24.6°C 49.4°F9.7°C 39% 5.8 mph NW9.3 kmh NW 5.8 mph9.3 kmh 29.81 in1009.5 mb - 0.00 in0.0 mm 0.00 in0.0 mm
08:50 AM 77.8°F25.4°C 50.9°F10.5°C 39% 3.5 mph N5.6 kmh N 8.1 mph13.0 kmh 29.82 in1009.8 mb - 0.00 in0.0 mm 0.00 in0.0 mm
09:00 AM 77.8°F25.4°C 50.2°F10.1°C 38% 5.8 mph NW9.3 kmh NW 5.8 mph9.3 kmh 29.84 in1010.5 mb - 0.00 in0.0 mm 0.00 in0.0 mm
09:10 AM 78.8°F26.0°C 51.1°F10.6°C 38% 3.5 mph NNW5.6 kmh NNW 4.6 mph7.4 kmh 29.84 in1010.5 mb - 0.00 in0.0 mm 0.00 in0.0 mm
09:20 AM 79.9°F26.6°C 51.3°F10.7°C 37% 4.6 mph NW7.4 kmh NW 9.2 mph14.8 kmh 29.84 in1010.5 mb - 0.00 in0.0 mm 0.00 in0.0 mm
09:30 AM 80.1°F26.7°C 51.4°F10.8°C 37% 5.8 mph NW9.3 kmh NW 8.1 mph13.0 kmh 29.84 in1010.5 mb - 0.00 in0.0 mm 0.00 in0.0 mm
09:40 AM 80.2°F26.8°C 51.6°F10.9°C 37% 5.8 mph NW9.3 kmh NW 8.1 mph13.0 kmh 29.84 in1010.5 mb - 0.00 in0.0 mm 0.00 in0.0 mm
09:50 AM 81.0°F27.2°C 52.3°F11.3°C 37% 5.8 mph N9.3 kmh N 6.9 mph11.1 kmh 29.84 in1010.5 mb - 0.00 in0.0 mm 0.00 in0.0 mm
10:00 AM 81.9°F27.7°C 53.0°F11.7°C 37% 4.6 mph NNW7.4 kmh NNW 5.8 mph9.3 kmh 29.84 in1010.5 mb - 0.00 in0.0 mm 0.00 in0.0 mm
10:10 AM 80.4°F26.9°C 51.8°F11.0°C 37% 6.9 mph N11.1 kmh N 5.8 mph9.3 kmh 29.84 in1010.5 mb - 0.00 in0.0 mm 0.00 in0.0 mm
10:20 AM 81.7°F27.6°C 52.9°F11.6°C 37% 4.6 mph NNW7.4 kmh NNW 8.1 mph13.0 kmh 29.84 in1010.5 mb - 0.00 in0.0 mm 0.00 in0.0 mm
10:30 AM 81.9°F27.7°C 53.0°F11.7°C 37% 4.6 mph N7.4 kmh N 8.1 mph13.0 kmh 29.84 in1010.5 mb - 0.00 in0.0 mm 0.00 in0.0 mm
10:40 AM 82.9°F28.3°C 53.2°F11.8°C 36% 3.5 mph N5.6 kmh N 8.1 mph13.0 kmh 29.84 in1010.5 mb - 0.00 in0.0 mm 0.00 in0.0 mm
10:50 AM 82.8°F28.2°C 53.2°F11.8°C 36% 3.5 mph N5.6 kmh N 8.1 mph13.0 kmh 29.84 in1010.5 mb - 0.00 in0.0 mm 0.00 in0.0 mm
11:00 AM 81.6°F27.6°C 52.0°F11.1°C 36% 6.9 mph NNW11.1 kmh NNW 8.1 mph13.0 kmh 29.84 in1010.5 mb - 0.00 in0.0 mm 0.00 in0.0 mm
11:10 AM 82.4°F28.0°C 52.7°F11.5°C 36% 6.9 mph NE11.1 kmh NE 3.5 mph5.6 kmh 29.84 in1010.5 mb - 0.00 in0.0 mm 0.00 in0.0 mm
11:20 AM 84.0°F28.9°C 54.2°F12.3°C 36% 6.9 mph NE11.1 kmh NE 3.5 mph5.6 kmh 29.84 in1010.5 mb - 0.00 in0.0 mm 0.00 in0.0 mm
11:30 AM 82.8°F28.2°C 53.1°F11.7°C 36% 3.5 mph NNE5.6 kmh NNE 5.8 mph9.3 kmh 29.84 in1010.5 mb - 0.00 in0.0 mm 0.00 in0.0 mm
11:40 AM 83.8°F28.8°C 54.0°F12.2°C 36% 3.5 mph NNE5.6 kmh NNE 5.8 mph9.3 kmh 29.84 in1010.5 mb - 0.00 in0.0 mm 0.00 in0.0 mm
11:50 AM 84.3°F29.1°C 53.7°F12.1°C 35% 3.5 mph NNE5.6 kmh NNE 5.8 mph9.3 kmh 29.82 in1009.8 mb - 0.00 in0.0 mm 0.00 in0.0 mm
12:00 PM 83.9°F28.8°C 53.3°F11.8°C 35% 3.5 mph N5.6 kmh N 11.5 mph18.5 kmh 29.81 in1009.5 mb - 0.00 in0.0 mm 0.00 in0.0 mm
12:10 PM 83.1°F28.4°C 53.3°F11.8°C 36% 4.6 mph NW7.4 kmh NW 5.8 mph9.3 kmh 29.84 in1010.5 mb - 0.00 in0.0 mm 0.00 in0.0 mm
12:20 PM 83.8°F28.8°C 54.0°F12.2°C 36% Calm Calm 5.8 mph9.3 kmh 29.82 in1009.8 mb - 0.00 in0.0 mm 0.00 in0.0 mm
12:30 PM 84.2°F29.0°C 54.4°F12.4°C 36% 2.3 mph NW3.7 kmh NW 4.6 mph7.4 kmh 29.81 in1009.5 mb - 0.00 in0.0 mm 0.00 in0.0 mm
12:40 PM 85.4°F29.7°C 53.0°F11.7°C 33% 4.6 mph NW7.4 kmh NW 6.9 mph11.1 kmh 29.81 in1009.5 mb - 0.00 in0.0 mm 0.00 in0.0 mm
12:50 PM 84.8°F29.3°C 54.9°F12.7°C 36% 2.3 mph N3.7 kmh N 5.8 mph9.3 kmh 29.81 in1009.5 mb - 0.00 in0.0 mm 0.00 in0.0 mm
01:00 PM 84.6°F29.2°C 53.1°F11.7°C 34% 3.5 mph W5.6 kmh W 3.5 mph5.6 kmh 29.81 in1009.5 mb - 0.00 in0.0 mm 0.00 in0.0 mm
01:10 PM 84.1°F28.9°C 54.2°F12.3°C 36% 3.5 mph W5.6 kmh W 4.6 mph7.4 kmh 29.81 in1009.5 mb - 0.00 in0.0 mm 0.00 in0.0 mm
01:20 PM 84.3°F29.1°C 54.4°F12.4°C 36% 2.3 mph W3.7 kmh W 5.8 mph9.3 kmh 29.81 in1009.5 mb - 0.00 in0.0 mm 0.00 in0.0 mm
01:30 PM 82.3°F27.9°C 52.6°F11.4°C 36% 3.5 mph NE5.6 kmh NE 3.5 mph5.6 kmh 29.81 in1009.5 mb - 0.00 in0.0 mm 0.00 in0.0 mm
01:40 PM 82.1°F27.8°C 52.5°F11.4°C 36% 1.2 mph NW1.9 kmh NW 3.5 mph5.6 kmh 29.81 in1009.5 mb - 0.00 in0.0 mm 0.00 in0.0 mm
01:50 PM 80.5°F26.9°C 51.8°F11.0°C 37% Calm Calm -- 29.81 in1009.5 mb - 0.00 in0.0 mm 0.00 in0.0 mm
02:00 PM 81.5°F27.5°C 51.9°F11.1°C 36% 3.5 mph ENE5.6 kmh ENE 3.5 mph5.6 kmh 29.81 in1009.5 mb - 0.00 in0.0 mm 0.00 in0.0 mm
02:10 PM 81.3°F27.4°C 51.8°F11.0°C 36% 2.3 mph NNW3.7 kmh NNW 8.1 mph13.0 kmh 29.81 in1009.5 mb - 0.00 in0.0 mm 0.00 in0.0 mm
02:20 PM 82.5°F28.1°C 52.9°F11.6°C 36% 3.5 mph NNW5.6 kmh NNW 5.8 mph9.3 kmh 29.81 in1009.5 mb - 0.00 in0.0 mm 0.00 in0.0 mm
02:30 PM 82.9°F28.3°C 53.2°F11.8°C 36% 5.8 mph NW9.3 kmh NW 11.5 mph18.5 kmh 29.81 in1009.5 mb - 0.00 in0.0 mm 0.00 in0.0 mm
02:40 PM 83.1°F28.4°C 52.7°F11.5°C 35% 3.5 mph NNW5.6 kmh NNW 8.1 mph13.0 kmh 29.81 in1009.5 mb - 0.00 in0.0 mm 0.00 in0.0 mm
02:50 PM 83.9°F28.8°C 54.1°F12.3°C 36% 5.8 mph NW9.3 kmh NW -- 29.81 in1009.5 mb - 0.00 in0.0 mm 0.00 in0.0 mm
03:00 PM 83.8°F28.8°C 54.0°F12.2°C 36% 5.8 mph N9.3 kmh N 8.1 mph13.0 kmh 29.81 in1009.5 mb - 0.00 in0.0 mm 0.00 in0.0 mm
03:10 PM 83.8°F28.8°C 54.0°F12.2°C 36% 2.3 mph NW3.7 kmh NW 3.5 mph5.6 kmh 29.78 in1008.5 mb - 0.00 in0.0 mm 0.00 in0.0 mm
03:20 PM 83.2°F28.4°C 52.7°F11.5°C 35% 4.6 mph NNE7.4 kmh NNE 5.8 mph9.3 kmh 29.78 in1008.5 mb - 0.00 in0.0 mm 0.00 in0.0 mm
03:30 PM 82.0°F27.8°C 52.4°F11.3°C 36% 4.6 mph N7.4 kmh N 3.5 mph5.6 kmh 29.78 in1008.5 mb - 0.00 in0.0 mm 0.00 in0.0 mm
03:40 PM 82.9°F28.3°C 53.2°F11.8°C 36% 3.5 mph NNW5.6 kmh NNW 5.8 mph9.3 kmh 29.78 in1008.5 mb - 0.00 in0.0 mm 0.00 in0.0 mm
03:50 PM 81.7°F27.6°C 51.4°F10.8°C 35% 5.8 mph NNW9.3 kmh NNW 5.8 mph9.3 kmh 29.78 in1008.5 mb - 0.00 in0.0 mm 0.00 in0.0 mm
04:00 PM 80.8°F27.1°C 52.1°F11.2°C 37% 2.3 mph WNW3.7 kmh WNW 3.5 mph5.6 kmh 29.78 in1008.5 mb - 0.00 in0.0 mm 0.00 in0.0 mm
04:10 PM 82.0°F27.8°C 52.4°F11.3°C 36% 3.5 mph NNW5.6 kmh NNW 5.8 mph9.3 kmh 29.78 in1008.5 mb - 0.00 in0.0 mm 0.00 in0.0 mm
04:20 PM 82.2°F27.9°C 52.6°F11.4°C 36% 3.5 mph NNW5.6 kmh NNW 6.9 mph11.1 kmh 29.78 in1008.5 mb - 0.00 in0.0 mm 0.00 in0.0 mm
04:30 PM 81.8°F27.7°C 51.4°F10.8°C 35% 5.8 mph NW9.3 kmh NW 5.8 mph9.3 kmh 29.78 in1008.5 mb - 0.00 in0.0 mm 0.00 in0.0 mm
04:40 PM 81.3°F27.4°C 51.8°F11.0°C 36% 2.3 mph NNW3.7 kmh NNW 5.8 mph9.3 kmh 29.78 in1008.5 mb - 0.00 in0.0 mm 0.00 in0.0 mm
04:50 PM 80.8°F27.1°C 52.1°F11.2°C 37% 3.5 mph NNW5.6 kmh NNW 9.2 mph14.8 kmh 29.78 in1008.5 mb - 0.00 in0.0 mm 0.00 in0.0 mm
05:00 PM 80.4°F26.9°C 51.7°F10.9°C 37% 4.6 mph N7.4 kmh N 5.8 mph9.3 kmh 29.78 in1008.5 mb - 0.00 in0.0 mm 0.00 in0.0 mm
05:10 PM 79.7°F26.5°C 49.6°F9.8°C 35% 4.6 mph N7.4 kmh N 5.8 mph9.3 kmh 29.78 in1008.5 mb - 0.00 in0.0 mm 0.00 in0.0 mm
05:20 PM 79.5°F26.4°C 48.7°F9.3°C 34% 4.6 mph N7.4 kmh N 5.8 mph9.3 kmh 29.78 in1008.5 mb - 0.00 in0.0 mm 0.00 in0.0 mm
05:30 PM 79.2°F26.2°C 48.4°F9.1°C 34% 2.3 mph NNW3.7 kmh NNW -- 29.78 in1008.5 mb - 0.00 in0.0 mm 0.00 in0.0 mm
05:40 PM 78.6°F25.9°C 48.7°F9.3°C 35% 2.3 mph NNW3.7 kmh NNW -- 29.78 in1008.5 mb - 0.00 in0.0 mm 0.00 in0.0 mm
05:50 PM 78.2°F25.7°C 49.0°F9.4°C 36% 2.3 mph NNW3.7 kmh NNW -- 29.78 in1008.5 mb - 0.00 in0.0 mm 0.00 in0.0 mm
06:00 PM 78.1°F25.6°C 49.7°F9.8°C 37% 2.3 mph NNW3.7 kmh NNW -- 29.78 in1008.5 mb - 0.00 in0.0 mm 0.00 in0.0 mm
06:10 PM 77.5°F25.3°C 49.2°F9.6°C 37% 2.3 mph NNW3.7 kmh NNW -- 29.78 in1008.5 mb - 0.00 in0.0 mm 0.00 in0.0 mm
06:20 PM 77.2°F25.1°C 49.6°F9.8°C 38% 2.3 mph NNW3.7 kmh NNW -- 29.78 in1008.5 mb - 0.00 in0.0 mm 0.00 in0.0 mm
06:30 PM 76.5°F24.7°C 49.0°F9.4°C 38% 2.3 mph NNW3.7 kmh NNW -- 29.78 in1008.5 mb - 0.00 in0.0 mm 0.00 in0.0 mm
06:40 PM 75.6°F24.2°C 48.2°F9.0°C 38% Calm Calm -- 29.78 in1008.5 mb - 0.00 in0.0 mm 0.00 in0.0 mm
06:50 PM 74.7°F23.7°C 48.1°F8.9°C 39% Calm Calm -- 29.78 in1008.5 mb - 0.00 in0.0 mm 0.00 in0.0 mm
07:00 PM 73.9°F23.3°C 47.4°F8.6°C 39% Calm Calm -- 29.78 in1008.5 mb - 0.00 in0.0 mm 0.00 in0.0 mm
07:10 PM 73.3°F22.9°C 47.6°F8.7°C 40% Calm Calm -- 29.78 in1008.5 mb - 0.00 in0.0 mm 0.00 in0.0 mm
07:20 PM 72.5°F22.5°C 46.8°F8.2°C 40% Calm Calm -- 29.78 in1008.5 mb - 0.00 in0.0 mm 0.00 in0.0 mm
07:30 PM 71.7°F22.1°C 46.8°F8.2°C 41% Calm Calm -- 29.78 in1008.5 mb - 0.00 in0.0 mm 0.00 in0.0 mm
07:40 PM 71.0°F21.7°C 47.3°F8.5°C 43% Calm Calm -- 29.78 in1008.5 mb - 0.00 in0.0 mm 0.00 in0.0 mm
07:50 PM 70.2°F21.2°C 47.2°F8.4°C 44% Calm Calm -- 29.78 in1008.5 mb - 0.00 in0.0 mm 0.00 in0.0 mm
08:00 PM 69.4°F20.8°C 47.2°F8.4°C 45% Calm Calm -- 29.78 in1008.5 mb - 0.00 in0.0 mm 0.00 in0.0 mm
08:10 PM 68.7°F20.4°C 48.8°F9.3°C 49% Calm Calm -- 29.78 in1008.5 mb - 0.00 in0.0 mm 0.00 in0.0 mm
08:20 PM 68.1°F20.1°C 48.8°F9.3°C 50% Calm Calm -- 29.78 in1008.5 mb - 0.00 in0.0 mm 0.00 in0.0 mm
08:30 PM 67.8°F19.9°C 49.0°F9.4°C 51% Calm Calm -- 29.78 in1008.5 mb - 0.00 in0.0 mm 0.00 in0.0 mm
08:40 PM 67.4°F19.7°C 48.6°F9.2°C 51% Calm Calm -- 29.81 in1009.5 mb - 0.00 in0.0 mm 0.00 in0.0 mm
08:50 PM 67.1°F19.5°C 48.9°F9.4°C 52% Calm Calm -- 29.81 in1009.5 mb - 0.00 in0.0 mm 0.00 in0.0 mm
09:00 PM 66.7°F19.3°C 48.5°F9.2°C 52% Calm Calm -- 29.81 in1009.5 mb - 0.00 in0.0 mm 0.00 in0.0 mm
09:10 PM 66.6°F19.2°C 48.9°F9.4°C 53% Calm Calm -- 29.81 in1009.5 mb - 0.00 in0.0 mm 0.00 in0.0 mm
09:20 PM 66.0°F18.9°C 48.4°F9.1°C 53% Calm Calm -- 29.81 in1009.5 mb - 0.00 in0.0 mm 0.00 in0.0 mm
09:30 PM 66.0°F18.9°C 48.9°F9.4°C 54% Calm Calm -- 29.81 in1009.5 mb - 0.00 in0.0 mm 0.00 in0.0 mm
09:40 PM 65.7°F18.7°C 48.6°F9.2°C 54% Calm Calm -- 29.81 in1009.5 mb - 0.00 in0.0 mm 0.00 in0.0 mm
09:50 PM 65.3°F18.5°C 48.2°F9.0°C 54% Calm Calm -- 29.81 in1009.5 mb - 0.00 in0.0 mm 0.00 in0.0 mm
10:00 PM 65.5°F18.6°C 48.4°F9.1°C 54% Calm Calm -- 29.81 in1009.5 mb - 0.00 in0.0 mm 0.00 in0.0 mm
10:10 PM 65.5°F18.6°C 48.4°F9.1°C 54% Calm Calm -- 29.81 in1009.5 mb - 0.00 in0.0 mm 0.00 in0.0 mm
10:20 PM 65.1°F18.4°C 48.1°F8.9°C 54% Calm Calm -- 29.79 in1008.8 mb - 0.00 in0.0 mm 0.00 in0.0 mm
10:30 PM 64.8°F18.2°C 48.2°F9.0°C 55% Calm Calm -- 29.78 in1008.5 mb - 0.00 in0.0 mm 0.00 in0.0 mm
10:40 PM 64.4°F18.0°C 47.9°F8.8°C 55% Calm Calm -- 29.78 in1008.5 mb - 0.00 in0.0 mm 0.00 in0.0 mm
10:50 PM 64.4°F18.0°C 48.4°F9.1°C 56% Calm Calm -- 29.80 in1009.1 mb - 0.00 in0.0 mm 0.00 in0.0 mm
11:00 PM 64.2°F17.9°C 48.2°F9.0°C 56% Calm Calm -- 29.81 in1009.5 mb - 0.00 in0.0 mm 0.00 in0.0 mm
11:10 PM 63.9°F17.7°C 47.9°F8.8°C 56% Calm Calm -- 29.78 in1008.5 mb - 0.00 in0.0 mm 0.00 in0.0 mm
11:20 PM 63.9°F17.7°C 47.9°F8.8°C 56% Calm Calm -- 29.81 in1009.5 mb - 0.00 in0.0 mm 0.00 in0.0 mm
11:30 PM 63.7°F17.6°C 48.2°F9.0°C 57% Calm Calm -- 29.81 in1009.5 mb - 0.00 in0.0 mm 0.00 in0.0 mm
11:40 PM 63.5°F17.5°C 48.0°F8.9°C 57% Calm Calm -- 29.81 in1009.5 mb - 0.00 in0.0 mm 0.00 in0.0 mm
11:50 PM 63.3°F17.4°C 47.8°F8.8°C 57% Calm Calm -- 29.81 in1009.5 mb - 0.00 in0.0 mm 0.00 in0.0 mm